Time;durP1;ratioP1;P1;durP2;ratioP2;P2;SDS_P1;SDS_P2;PMS_P1;PMS_P2;Temp;Humidity;BMP_temperature;BMP_pressure;BME280_temperature;BME280_humidity;BME280_pressure;Samples;Min_cycle;Max_cycle;Signal;HPM_P1;HPM_P2
2022/06/12 00:01:57;;;;;;;4.10;2.00;;;;;;;;;;5049388;28;20705;-60
2022/06/12 00:04:24;;;;;;;3.10;2.00;;;;;;;;;;5050251;28;20197;-60
2022/06/12 00:06:52;;;;;;;2.70;1.57;;;;;;;;;;5049867;28;20218;-60
2022/06/12 00:09:20;;;;;;;2.90;1.53;;;;;;;;;;5049423;28;20555;-60
2022/06/12 00:11:47;;;;;;;2.67;1.70;;;;;;;;;;5040805;28;20209;-60
2022/06/12 00:14:15;;;;;;;4.00;1.70;;;;;;;;;;5049542;28;20866;-60
2022/06/12 00:16:43;;;;;;;3.03;1.67;;;;;;;;;;5049701;28;20693;-60
2022/06/12 00:19:11;;;;;;;2.17;1.50;;;;;;;;;;5050117;28;20198;-60
2022/06/12 00:21:38;;;;;;;2.13;1.60;;;;;;;;;;5046724;28;20223;-59
2022/06/12 00:24:07;;;;;;;3.83;1.77;;;;;;;;;;5045503;28;20209;-60
2022/06/12 00:26:39;;;;;;;2.20;1.60;;;;;;;;;;5048810;28;20632;-59
2022/06/12 00:29:17;;;;;;;2.87;1.57;;;;;;;;;;5049718;28;20194;-59
2022/06/12 00:31:47;;;;;;;3.73;1.80;;;;;;;;;;5048100;28;20753;-59
2022/06/12 00:34:16;;;;;;;3.00;1.83;;;;;;;;;;5028044;28;20238;-60
2022/06/12 00:36:45;;;;;;;3.17;1.90;;;;;;;;;;5048211;28;20201;-59
2022/06/12 00:39:23;;;;;;;3.73;1.90;;;;;;;;;;5049898;28;20209;-60
2022/06/12 00:41:51;;;;;;;2.90;1.90;;;;;;;;;;5029005;28;20206;-60
2022/06/12 00:44:25;;;;;;;2.37;1.60;;;;;;;;;;5028090;28;20219;-60
2022/06/12 00:46:57;;;;;;;1.90;1.43;;;;;;;;;;5048167;28;20202;-60
2022/06/12 00:49:56;;;;;;;1.80;1.50;;;;;;;;;;5049395;28;20627;-60
2022/06/12 00:52:45;;;;;;;2.97;1.67;;;;;;;;;;4991951;28;20374;-60
2022/06/12 00:55:18;;;;;;;3.40;2.00;;;;;;;;;;5047927;28;20210;-60
2022/06/12 00:57:48;;;;;;;3.17;1.83;;;;;;;;;;5018704;28;20194;-60
2022/06/12 01:00:23;;;;;;;3.43;1.97;;;;;;;;;;5028194;28;20210;-60
2022/06/12 01:02:52;;;;;;;2.50;1.70;;;;;;;;;;5048726;28;20210;-60
2022/06/12 01:08:07;;;;;;;3.20;1.70;;;;;;;;;;5044123;28;20190;-60
2022/06/12 01:10:40;;;;;;;3.40;1.80;;;;;;;;;;5048640;28;20210;-60
2022/06/12 01:13:18;;;;;;;1.87;1.43;;;;;;;;;;5048746;28;20198;-60
2022/06/12 01:15:56;;;;;;;2.77;1.87;;;;;;;;;;5046560;28;20194;-60
2022/06/12 01:18:26;;;;;;;4.50;2.03;;;;;;;;;;5048939;28;20194;-60
2022/06/12 01:20:53;;;;;;;3.70;2.00;;;;;;;;;;5045486;28;20217;-60
2022/06/12 01:23:31;;;;;;;2.70;1.70;;;;;;;;;;5048081;28;20207;-60
2022/06/12 01:26:17;;;;;;;2.00;1.70;;;;;;;;;;5045270;28;20197;-60
2022/06/12 01:28:47;;;;;;;2.93;1.77;;;;;;;;;;5048797;28;20206;-60
2022/06/12 01:31:17;;;;;;;2.10;1.53;;;;;;;;;;5047946;28;20753;-60
2022/06/12 01:33:45;;;;;;;2.37;1.50;;;;;;;;;;5041540;28;20488;-60
2022/06/12 01:36:22;;;;;;;1.93;1.67;;;;;;;;;;5046469;28;20319;-60
2022/06/12 01:38:53;;;;;;;3.13;1.77;;;;;;;;;;5048497;28;20182;-59
2022/06/12 01:41:20;;;;;;;2.60;1.80;;;;;;;;;;5037874;28;20218;-59
2022/06/12 01:43:50;;;;;;;3.47;2.17;;;;;;;;;;5042919;28;20198;-60
2022/06/12 01:46:25;;;;;;;3.57;1.80;;;;;;;;;;5047946;28;20191;-60
2022/06/12 01:49:16;;;;;;;3.10;1.90;;;;;;;;;;5037485;28;20194;-60
2022/06/12 01:51:54;;;;;;;2.37;1.90;;;;;;;;;;4993503;28;20238;-59
2022/06/12 01:54:30;;;;;;;3.00;1.60;;;;;;;;;;5046579;28;20213;-60
2022/06/12 01:56:57;;;;;;;2.77;1.57;;;;;;;;;;5045884;28;20222;-60
2022/06/12 01:59:40;;;;;;;2.90;1.57;;;;;;;;;;5048368;28;20601;-60
2022/06/12 02:02:15;;;;;;;3.03;2.03;;;;;;;;;;5035712;28;20221;-60
2022/06/12 02:04:42;;;;;;;2.73;1.80;;;;;;;;;;5038270;28;20645;-60
2022/06/12 02:07:09;;;;;;;2.10;1.60;;;;;;;;;;5040995;28;20647;-60
2022/06/12 02:09:38;;;;;;;2.43;1.80;;;;;;;;;;5047753;28;20194;-60
2022/06/12 02:15:09;;;;;;;2.63;1.70;;;;;;;;;;5046390;28;20217;-59
2022/06/12 02:17:56;;;;;;;2.63;1.90;;;;;;;;;;5045077;28;20648;-60
2022/06/12 02:20:25;;;;;;;2.73;2.00;;;;;;;;;;5048192;28;20190;-60
2022/06/12 02:22:53;;;;;;;3.07;2.20;;;;;;;;;;5044740;28;20230;-60
2022/06/12 02:25:25;;;;;;;3.20;1.90;;;;;;;;;;5047559;28;20214;-59
2022/06/12 02:28:03;;;;;;;2.80;1.90;;;;;;;;;;5044030;28;20198;-60
2022/06/12 02:30:38;;;;;;;2.33;1.70;;;;;;;;;;5047436;28;20186;-59
2022/06/12 02:33:07;;;;;;;2.30;1.70;;;;;;;;;;5047374;28;20198;-59
2022/06/12 02:35:44;;;;;;;2.37;1.83;;;;;;;;;;5036043;28;20233;-60
2022/06/12 02:38:16;;;;;;;2.53;1.83;;;;;;;;;;5045629;28;20186;-60
2022/06/12 02:40:49;;;;;;;2.53;2.00;;;;;;;;;;5047478;28;20201;-60
2022/06/12 02:43:19;;;;;;;2.20;1.60;;;;;;;;;;5046980;28;20250;-59
2022/06/12 02:45:52;;;;;;;3.43;2.00;;;;;;;;;;5044019;28;20198;-59
2022/06/12 02:48:20;;;;;;;4.63;2.07;;;;;;;;;;5045138;28;20186;-59
2022/06/12 02:50:55;;;;;;;2.40;1.77;;;;;;;;;;5048543;28;20190;-59
2022/06/12 02:53:34;;;;;;;2.43;1.53;;;;;;;;;;5046995;28;20210;-60
2022/06/12 02:56:08;;;;;;;2.87;1.70;;;;;;;;;;5044446;28;20548;-59
2022/06/12 02:58:51;;;;;;;1.87;1.70;;;;;;;;;;5029379;28;20237;-59
2022/06/12 03:01:20;;;;;;;3.30;2.07;;;;;;;;;;5046636;28;20198;-59
2022/06/12 03:03:51;;;;;;;2.33;1.70;;;;;;;;;;5044538;28;20580;-60
2022/06/12 03:06:19;;;;;;;3.40;2.00;;;;;;;;;;5044877;28;20285;-60
2022/06/12 03:08:49;;;;;;;2.30;1.83;;;;;;;;;;5046161;28;20214;-59
2022/06/12 03:11:19;;;;;;;2.43;1.77;;;;;;;;;;5037102;28;20211;-60
2022/06/12 03:13:47;;;;;;;2.37;1.80;;;;;;;;;;5044519;28;20198;-59
2022/06/12 03:16:17;;;;;;;2.73;1.77;;;;;;;;;;5041962;28;20228;-60
2022/06/12 03:18:48;;;;;;;2.63;1.87;;;;;;;;;;5039955;28;20198;-60
2022/06/12 03:21:34;;;;;;;2.77;1.70;;;;;;;;;;5042900;28;20285;-59
2022/06/12 03:24:23;;;;;;;2.07;1.70;;;;;;;;;;5040652;28;20217;-60
2022/06/12 03:26:51;;;;;;;2.20;1.67;;;;;;;;;;5046801;28;20269;-60
2022/06/12 03:29:27;;;;;;;2.87;1.93;;;;;;;;;;5046406;28;20213;-59
2022/06/12 03:31:54;;;;;;;2.67;1.60;;;;;;;;;;5044193;28;20194;-59
2022/06/12 03:34:24;;;;;;;2.67;1.70;;;;;;;;;;5043311;28;20234;-60
2022/06/12 03:36:53;;;;;;;3.20;1.77;;;;;;;;;;5046844;28;20202;-60
2022/06/12 03:39:32;;;;;;;2.27;1.70;;;;;;;;;;5046290;28;20217;-60
2022/06/12 03:42:11;;;;;;;2.37;1.80;;;;;;;;;;5044300;28;20225;-60
2022/06/12 03:44:44;;;;;;;2.30;2.00;;;;;;;;;;5046655;28;20209;-60
2022/06/12 03:47:23;;;;;;;2.10;1.70;;;;;;;;;;5042966;28;20214;-60
2022/06/12 03:49:58;;;;;;;1.80;1.63;;;;;;;;;;5040701;28;20198;-59
2022/06/12 03:52:29;;;;;;;2.70;1.77;;;;;;;;;;5027232;28;20199;-59
2022/06/12 03:55:00;;;;;;;2.30;1.67;;;;;;;;;;5040235;28;20210;-59
2022/06/12 04:00:17;;;;;;;3.30;1.90;;;;;;;;;;5046648;28;20233;-60
2022/06/12 04:02:46;;;;;;;3.77;1.80;;;;;;;;;;5050055;28;20267;-60
2022/06/12 04:05:34;;;;;;;2.50;1.80;;;;;;;;;;5050342;28;20190;-61
2022/06/12 04:08:03;;;;;;;2.43;1.50;;;;;;;;;;5047009;28;20644;-61
2022/06/12 04:10:32;;;;;;;2.90;1.83;;;;;;;;;;5046282;28;20649;-60
2022/06/12 04:12:59;;;;;;;3.30;2.23;;;;;;;;;;5048669;28;20198;-60
2022/06/12 04:15:40;;;;;;;2.60;1.60;;;;;;;;;;5039793;28;20201;-61
2022/06/12 04:18:07;;;;;;;2.30;1.47;;;;;;;;;;5028890;28;20194;-61
2022/06/12 04:20:48;;;;;;;2.43;1.80;;;;;;;;;;5049342;28;20199;-62
2022/06/12 04:23:18;;;;;;;2.67;1.70;;;;;;;;;;5032630;28;20248;-61
2022/06/12 04:25:56;;;;;;;4.27;1.80;;;;;;;;;;5043542;28;20269;-61
2022/06/12 04:28:32;;;;;;;4.27;2.20;;;;;;;;;;5049633;28;20213;-61
2022/06/12 04:31:01;;;;;;;2.90;2.10;;;;;;;;;;5017387;28;20191;-61
2022/06/12 04:33:48;;;;;;;2.90;1.90;;;;;;;;;;5049413;28;20240;-61
2022/06/12 04:36:17;;;;;;;3.20;1.83;;;;;;;;;;5029911;28;20235;-61
2022/06/12 04:38:48;;;;;;;1.87;1.53;;;;;;;;;;5030079;28;20788;-61
2022/06/12 04:41:29;;;;;;;2.97;1.90;;;;;;;;;;5029637;28;20198;-61
2022/06/12 04:43:59;;;;;;;1.90;1.50;;;;;;;;;;5010543;28;20235;-61
2022/06/12 04:46:32;;;;;;;3.30;1.90;;;;;;;;;;5025780;28;20203;-61
2022/06/12 04:49:05;;;;;;;2.63;2.07;;;;;;;;;;5029279;28;20553;-61
2022/06/12 04:51:35;;;;;;;2.17;1.80;;;;;;;;;;5028599;28;20244;-59
2022/06/12 04:54:08;;;;;;;1.90;1.60;;;;;;;;;;5020475;28;20219;-59
2022/06/12 04:56:40;;;;;;;3.30;2.27;;;;;;;;;;5021659;28;20219;-59
2022/06/12 04:59:13;;;;;;;4.30;2.10;;;;;;;;;;5020651;28;20195;-60
2022/06/12 05:01:42;;;;;;;2.70;1.90;;;;;;;;;;5011767;28;20261;-61
2022/06/12 05:04:14;;;;;;;2.37;1.50;;;;;;;;;;5027721;28;20659;-61
2022/06/12 05:06:49;;;;;;;2.73;1.90;;;;;;;;;;5029193;28;20201;-61
2022/06/12 05:09:23;;;;;;;2.63;1.60;;;;;;;;;;5028678;28;20201;-61
2022/06/12 05:11:53;;;;;;;3.03;2.10;;;;;;;;;;5023711;28;20219;-61
2022/06/12 05:14:20;;;;;;;2.90;1.90;;;;;;;;;;5023742;28;20215;-61
2022/06/12 05:16:52;;;;;;;2.77;1.60;;;;;;;;;;5024885;28;20195;-61
2022/06/12 05:19:21;;;;;;;1.90;1.50;;;;;;;;;;5027994;28;20195;-61
2022/06/12 05:21:49;;;;;;;2.93;1.97;;;;;;;;;;5015790;28;20204;-59
2022/06/12 05:24:22;;;;;;;2.93;1.77;;;;;;;;;;5008529;28;20224;-60
2022/06/12 05:26:58;;;;;;;2.23;1.60;;;;;;;;;;5011711;28;20202;-60
2022/06/12 05:29:30;;;;;;;3.17;1.80;;;;;;;;;;5027824;28;20197;-60
2022/06/12 05:32:00;;;;;;;2.63;1.80;;;;;;;;;;5024300;28;20341;-60
2022/06/12 05:34:30;;;;;;;4.43;1.90;;;;;;;;;;5023857;28;20244;-60
2022/06/12 05:36:59;;;;;;;2.57;1.53;;;;;;;;;;5048057;28;20202;-61
2022/06/12 05:39:27;;;;;;;3.33;2.20;;;;;;;;;;5032200;28;20201;-62
2022/06/12 05:41:56;;;;;;;2.83;1.70;;;;;;;;;;5045492;28;20528;-61
2022/06/12 05:44:27;;;;;;;2.97;1.70;;;;;;;;;;5046469;28;20222;-61
2022/06/12 05:46:59;;;;;;;2.40;1.60;;;;;;;;;;5026770;28;20246;-61
2022/06/12 05:49:29;;;;;;;2.90;1.77;;;;;;;;;;5038504;28;20781;-61
2022/06/12 05:51:57;;;;;;;2.63;1.50;;;;;;;;;;5039835;28;21288;-61
2022/06/12 05:54:24;;;;;;;2.03;1.60;;;;;;;;;;5021423;28;20221;-61
2022/06/12 05:56:52;;;;;;;2.87;1.90;;;;;;;;;;5041845;28;20213;-61
2022/06/12 05:59:24;;;;;;;2.00;1.40;;;;;;;;;;5045199;28;20656;-61
2022/06/12 06:01:55;;;;;;;4.83;1.93;;;;;;;;;;5044815;28;20217;-60
2022/06/12 06:04:22;;;;;;;1.83;1.43;;;;;;;;;;5047405;28;20218;-60
2022/06/12 06:06:52;;;;;;;3.70;1.70;;;;;;;;;;5047796;28;20268;-59
2022/06/12 06:09:24;;;;;;;1.47;1.30;;;;;;;;;;5047647;28;20198;-60
2022/06/12 06:11:56;;;;;;;2.37;1.50;;;;;;;;;;5042545;28;20259;-60
2022/06/12 06:14:28;;;;;;;2.53;1.87;;;;;;;;;;5020509;28;20248;-60
2022/06/12 06:17:06;;;;;;;2.43;1.60;;;;;;;;;;5042447;28;20198;-60
2022/06/12 06:19:34;;;;;;;2.60;1.70;;;;;;;;;;5028749;28;20221;-60
2022/06/12 06:22:10;;;;;;;3.27;1.97;;;;;;;;;;5043180;28;20318;-61
2022/06/12 06:24:43;;;;;;;3.47;1.73;;;;;;;;;;5045785;28;20222;-61
2022/06/12 06:27:14;;;;;;;3.87;1.47;;;;;;;;;;5047100;28;20214;-59
2022/06/12 06:29:44;;;;;;;2.67;1.57;;;;;;;;;;5045039;28;20210;-60
2022/06/12 06:32:15;;;;;;;2.83;1.77;;;;;;;;;;5047318;28;20194;-61
2022/06/12 06:34:48;;;;;;;3.17;1.70;;;;;;;;;;5043883;28;20304;-62
2022/06/12 06:37:20;;;;;;;2.87;1.73;;;;;;;;;;5048513;28;20252;-61
2022/06/12 06:39:50;;;;;;;3.03;1.90;;;;;;;;;;5025501;28;20203;-61
2022/06/12 06:42:21;;;;;;;2.70;1.53;;;;;;;;;;5046153;28;20198;-61
2022/06/12 06:47:43;;;;;;;4.23;2.10;;;;;;;;;;5029254;28;20211;-60
2022/06/12 06:50:12;;;;;;;3.50;1.97;;;;;;;;;;5044744;28;20194;-61
2022/06/12 06:52:40;;;;;;;4.47;2.10;;;;;;;;;;5045975;28;20205;-61
2022/06/12 06:55:17;;;;;;;3.97;2.00;;;;;;;;;;5028778;28;20212;-61
2022/06/12 06:57:48;;;;;;;4.93;2.30;;;;;;;;;;5043194;28;20194;-61
2022/06/12 07:00:23;;;;;;;5.27;2.30;;;;;;;;;;5047492;28;20225;-60
2022/06/12 07:02:50;;;;;;;6.53;2.80;;;24.00;53.30;;;;;;5039208;28;20215;-68
2022/06/12 07:05:19;;;;;;;12.30;3.17;;;24.00;52.30;;;;;;5032180;28;20209;-68
2022/06/12 07:07:46;;;;;;;11.67;3.53;;;24.00;52.50;;;;;;5041579;28;20194;-68
2022/06/12 07:10:18;;;;;;;7.30;3.37;;;24.00;52.20;;;;;;5044665;28;20229;-69
2022/06/12 07:12:46;;;;;;;8.20;2.80;;;;;;;;;;5035210;28;20305;-70
2022/06/12 07:15:14;;;;;;;7.83;3.00;;;;;;;;;;5041783;28;20190;-70
2022/06/12 07:17:41;;;;;;;9.20;3.27;;;23.90;51.80;;;;;;5041274;28;20195;-68
2022/06/12 07:20:10;;;;;;;9.27;3.63;;;23.90;51.60;;;;;;5036518;28;20190;-66
2022/06/12 07:22:37;;;;;;;9.47;3.40;;;23.90;51.70;;;;;;5031798;28;20218;-67
2022/06/12 07:25:05;;;;;;;12.07;4.23;;;23.90;50.80;;;;;;5018964;28;20813;-69
2022/06/12 07:27:32;;;;;;;11.30;3.50;;;23.80;51.40;;;;;;5031390;28;21273;-69
2022/06/12 07:30:08;;;;;;;9.50;3.67;;;23.80;52.00;;;;;;5033681;28;20193;-64
2022/06/12 07:32:39;;;;;;;7.77;3.27;;;23.90;52.10;;;;;;5009261;28;20237;-67
2022/06/12 07:35:11;;;;;;;10.50;3.63;;;23.90;52.10;;;;;;5028463;28;20743;-67
2022/06/12 07:37:39;;;;;;;11.77;4.07;;;;;;;;;;5032114;28;20228;-67
2022/06/12 07:40:12;;;;;;;9.10;3.30;;;23.90;51.20;;;;;;5047738;28;20201;-66
2022/06/12 07:42:39;;;;;;;13.27;4.10;;;;;;;;;;5031244;28;20194;-66
2022/06/12 07:45:06;;;;;;;8.77;3.33;;;;;;;;;;5048886;28;20187;-66
2022/06/12 07:47:33;;;;;;;10.40;3.30;;;23.80;51.60;;;;;;5047396;28;20544;-70
2022/06/12 07:50:00;;;;;;;11.23;3.70;;;23.80;51.70;;;;;;5049504;28;20198;-70
2022/06/12 07:52:27;;;;;;;11.23;3.43;;;;;;;;;;5047592;28;20205;-66
2022/06/12 07:54:55;;;;;;;10.97;4.07;;;;;;;;;;5033982;28;20201;-65
2022/06/12 07:57:22;;;;;;;11.93;4.27;;;;;;;;;;5045794;28;20199;-66
2022/06/12 07:59:50;;;;;;;12.53;3.60;;;;;;;;;;5035079;28;20241;-66
2022/06/12 08:02:23;;;;;;;10.60;3.57;;;;;;;;;;5051388;28;20194;-68
2022/06/12 08:04:54;;;;;;;11.27;4.07;;;;;;;;;;5046742;28;20234;-66
2022/06/12 08:07:26;;;;;;;13.03;4.10;;;;;;;;;;5046156;28;20207;-67
2022/06/12 08:09:59;;;;;;;11.43;3.50;;;;;;;;;;5045807;28;20287;-68
2022/06/12 08:12:37;;;;;;;11.43;4.00;;;;;;;;;;5047910;28;20201;-67
2022/06/12 08:15:10;;;;;;;13.57;4.33;;;;;;;;;;5033469;28;20728;-68
2022/06/12 08:17:40;;;;;;;9.33;4.07;;;;;;;;;;5049618;28;20208;-67
2022/06/12 08:20:25;;;;;;;10.07;3.43;;;;;;;;;;5034151;28;20198;-67
2022/06/12 08:22:56;;;;;;;8.77;3.33;;;;;;;;;;5031274;28;20225;-66
2022/06/12 08:25:26;;;;;;;11.60;3.77;;;;;;;;;;5042497;28;20197;-67
2022/06/12 08:27:54;;;;;;;9.00;3.50;;;;;;;;;;5035239;28;20198;-67
2022/06/12 08:30:21;;;;;;;7.43;3.20;;;;;;;;;;5034485;28;20194;-66
2022/06/12 08:32:50;;;;;;;14.00;3.60;;;;;;;;;;5051327;28;20183;-68
2022/06/12 08:35:19;;;;;;;12.33;4.00;;;;;;;;;;5046539;28;20692;-69
2022/06/12 08:37:52;;;;;;;9.20;2.93;;;;;;;;;;5045425;28;20221;-67
2022/06/12 08:40:45;;;;;;;11.10;3.57;;;;;;;;;;5037151;28;20205;-69
2022/06/12 08:43:17;;;;;;;8.77;3.77;;;;;;;;;;5048113;28;20325;-68
2022/06/12 08:45:52;;;;;;;11.37;3.70;;;;;;;;;;5046348;28;20195;-67
2022/06/12 08:48:29;;;;;;;8.47;3.10;;;;;;;;;;5028004;28;20226;-69
2022/06/12 08:50:58;;;;;;;13.27;4.10;;;;;;;;;;5049025;28;20201;-66
2022/06/12 08:53:40;;;;;;;11.87;3.53;;;;;;;;;;5053609;28;20206;-68
2022/06/12 08:56:22;;;;;;;8.70;3.23;;;;;;;;;;5047090;28;20623;-67
2022/06/12 08:59:07;;;;;;;8.03;3.27;;;;;;;;;;5042791;28;20215;-67
2022/06/12 09:01:41;;;;;;;10.43;3.67;;;;;;;;;;5024944;28;20195;-67
2022/06/12 09:04:10;;;;;;;9.43;3.43;;;;;;;;;;5046630;28;20218;-68
2022/06/12 09:06:41;;;;;;;10.93;3.60;;;;;;;;;;5031255;28;20191;-66
2022/06/12 09:09:26;;;;;;;9.03;3.33;;;;;;;;;;5048915;28;20191;-66
2022/06/12 09:12:12;;;;;;;8.33;3.33;;;;;;;;;;5024388;28;20754;-68
2022/06/12 09:14:59;;;;;;;7.47;3.47;;;;;;;;;;5036659;28;20213;-69
2022/06/12 09:17:49;;;;;;;10.27;3.30;;;;;;;;;;5042957;28;20707;-66
2022/06/12 09:20:23;;;;;;;8.33;3.20;;;;;;;;;;5047234;28;20248;-67
2022/06/12 09:23:08;;;;;;;9.23;2.90;;;;;;;;;;5045387;28;20540;-67
2022/06/12 09:25:59;;;;;;;9.77;2.83;;;;;;;;;;5047690;28;20194;-70
2022/06/12 09:28:44;;;;;;;6.40;2.73;;;;;;;;;;5047466;28;20201;-66
2022/06/12 09:31:25;;;;;;;9.73;3.73;;;;;;;;;;5044307;28;20183;-66
2022/06/12 09:34:05;;;;;;;13.37;3.30;;;;;;;;;;5040932;28;20198;-66
2022/06/12 09:36:54;;;;;;;11.60;3.43;;;;;;;;;;5046029;28;20242;-63
2022/06/12 09:39:41;;;;;;;9.13;3.40;;;;;;;;;;5046202;28;20205;-64
2022/06/12 09:42:22;;;;;;;9.93;3.00;;;;;;;;;;5044861;28;20198;-66
2022/06/12 09:44:58;;;;;;;8.43;3.23;;;;;;;;;;5045037;28;20202;-70
2022/06/12 09:47:38;;;;;;;12.17;3.43;;;;;;;;;;5028018;28;20218;-68
2022/06/12 09:50:38;;;;;;;11.50;3.33;;;;;;;;;;5020550;28;20434;-69
2022/06/12 09:53:12;;;;;;;9.57;3.10;;;;;;;;;;5044483;28;20197;-68
2022/06/12 09:55:47;;;;;;;11.90;2.70;;;;;;;;;;5047867;28;20248;-68
2022/06/12 09:58:27;;;;;;;8.20;3.00;;;;;;;;;;5049536;28;20232;-67
2022/06/12 10:00:57;;;;;;;9.13;3.10;;;;;;;;;;5047329;28;20191;-63
2022/06/12 10:03:43;;;;;;;12.93;3.30;;;;;;;;;;5047600;28;20187;-64
2022/06/12 10:06:27;;;;;;;7.33;2.70;;;;;;;;;;5045948;28;20194;-66
2022/06/12 10:09:12;;;;;;;8.00;2.80;;;;;;;;;;5031399;28;20303;-66
2022/06/12 10:11:46;;;;;;;6.07;2.87;;;;;;;;;;5014728;28;20205;-66
2022/06/12 10:14:25;;;;;;;10.03;2.90;;;;;;;;;;5040367;28;20737;-66
2022/06/12 10:16:54;;;;;;;7.67;2.70;;;;;;;;;;5043211;28;20194;-62
2022/06/12 10:19:35;;;;;;;8.10;2.70;;;;;;;;;;5044436;28;20613;-63
2022/06/12 10:22:06;;;;;;;6.73;2.30;;;;;;;;;;5041721;28;20594;-66
2022/06/12 10:24:35;;;;;;;7.57;2.97;;;;;;;;;;5047689;28;20199;-67
2022/06/12 10:27:09;;;;;;;6.00;2.47;;;;;;;;;;5041720;28;20229;-63
2022/06/12 10:29:43;;;;;;;7.87;2.63;;;;;;;;;;5028879;28;20522;-63
2022/06/12 10:32:19;;;;;;;7.77;2.70;;;;;;;;;;5025919;28;20190;-63
2022/06/12 10:34:48;;;;;;;7.23;2.73;;;;;;;;;;5042631;28;20575;-65
2022/06/12 10:37:22;;;;;;;8.90;3.10;;;;;;;;;;5027744;28;20198;-67
2022/06/12 10:40:07;;;;;;;5.47;2.53;;;;;;;;;;5041389;28;20198;-68
2022/06/12 10:42:55;;;;;;;9.00;2.80;;;;;;;;;;5045214;28;20202;-67
2022/06/12 10:45:24;;;;;;;7.40;2.60;;;;;;;;;;5029445;28;20202;-65
2022/06/12 10:47:54;;;;;;;6.17;2.37;;;;;;;;;;5039539;28;20920;-64
2022/06/12 10:50:34;;;;;;;6.70;3.03;;;;;;;;;;5045460;28;20209;-64
2022/06/12 10:53:04;;;;;;;8.40;3.03;;;;;;;;;;5045598;28;20193;-64
2022/06/12 10:55:41;;;;;;;6.03;2.93;;;;;;;;;;5038993;28;20232;-64
2022/06/12 10:58:33;;;;;;;5.33;2.57;;;;;;;;;;5035408;28;20217;-64
2022/06/12 11:01:22;;;;;;;8.77;2.93;;;;;;;;;;5038900;28;20226;-64
2022/06/12 11:03:55;;;;;;;7.17;2.97;;;;;;;;;;5039758;28;20198;-64
2022/06/12 11:06:40;;;;;;;13.97;2.63;;;;;;;;;;5046280;28;20198;-66
2022/06/12 11:09:14;;;;;;;7.07;2.60;;;;;;;;;;5028259;28;20198;-66
2022/06/12 11:11:58;;;;;;;6.70;2.60;;;;;;;;;;5038444;28;20283;-65
2022/06/12 11:14:46;;;;;;;3.87;2.13;;;;;;;;;;5045617;28;20915;-64
2022/06/12 11:17:38;;;;;;;9.63;2.30;;;;;;;;;;5043600;28;20206;-64
2022/06/12 11:20:06;;;;;;;6.57;2.40;;;;;;;;;;5041529;28;20202;-64
2022/06/12 11:22:54;;;;;;;6.10;2.43;;;;;;;;;;5043808;28;20210;-65
2022/06/12 11:25:28;;;;;;;5.87;2.40;;;;;;;;;;5047707;28;21005;-66
2022/06/12 11:28:06;;;;;;;6.20;2.93;;;;;;;;;;5044897;28;20577;-66
2022/06/12 11:30:35;;;;;;;6.90;2.80;;;;;;;;;;5046754;28;20186;-64
2022/06/12 11:33:18;;;;;;;7.27;2.50;;;;;;;;;;5029459;28;20194;-64
2022/06/12 11:36:07;;;;;;;5.50;2.57;;;;;;;;;;5043640;28;20237;-64
2022/06/12 11:38:52;;;;;;;9.73;2.70;;;;;;;;;;5041997;28;20488;-64
2022/06/12 11:41:20;;;;;;;7.37;2.80;;;;;;;;;;5046574;28;20600;-66
2022/06/12 11:43:54;;;;;;;8.30;2.47;;;;;;;;;;5042627;28;20516;-66
2022/06/12 11:46:28;;;;;;;7.73;2.97;;;;;;;;;;5041190;28;20255;-66
2022/06/12 11:49:09;;;;;;;5.93;2.67;;;;;;;;;;5044558;28;20197;-66
2022/06/12 11:51:36;;;;;;;6.63;2.67;;;;;;;;;;5026814;28;20195;-66
2022/06/12 11:54:15;;;;;;;6.87;2.93;;;;;;;;;;5051740;28;20203;-66
2022/06/12 11:56:52;;;;;;;6.97;3.10;;;;;;;;;;5030667;28;20198;-66
2022/06/12 11:59:40;;;;;;;8.77;3.07;;;;;;;;;;5040955;28;20217;-66
2022/06/12 12:02:13;;;;;;;7.37;3.03;;;;;;;;;;5043302;28;20195;-64
2022/06/12 12:05:01;;;;;;;6.00;2.80;;;;;;;;;;5044217;28;20225;-64
2022/06/12 12:07:28;;;;;;;8.93;3.33;;;;;;;;;;5030181;28;20243;-64
2022/06/12 12:10:05;;;;;;;8.80;2.80;;;;;;;;;;5050985;28;20209;-64
2022/06/12 12:12:35;;;;;;;7.90;3.23;;;;;;;;;;5045610;28;20186;-64
2022/06/12 12:15:06;;;;;;;13.30;3.03;;;;;;;;;;5028117;28;20261;-64
2022/06/12 12:17:39;;;;;;;8.03;2.90;;;;;;;;;;5045682;28;20218;-64
2022/06/12 12:20:20;;;;;;;9.53;3.53;;;;;;;;;;5037710;28;20213;-64
2022/06/12 12:22:57;;;;;;;9.43;3.40;;;;;;;;;;5049643;28;20217;-64
2022/06/12 12:25:31;;;;;;;6.80;3.20;;;;;;;;;;5053988;28;20217;-66
2022/06/12 12:28:01;;;;;;;7.83;3.17;;;;;;;;;;5046236;28;20190;-66
2022/06/12 12:30:32;;;;;;;7.60;2.80;;;;;;;;;;5045433;28;20739;-66
2022/06/12 12:33:01;;;;;;;6.80;3.20;;;;;;;;;;5051906;28;20194;-67
2022/06/12 12:41:11;;;;;;;8.93;3.20;;;;;;;;;;5049033;28;20631;-64
2022/06/12 12:43:58;;;;;;;9.13;3.40;;;;;;;;;;5048975;28;20819;-65
2022/06/12 12:46:46;;;;;;;8.47;3.60;;;;;;;;;;5041135;28;20202;-64
2022/06/12 12:49:20;;;;;;;7.20;3.40;;;;;;;;;;5046311;28;20657;-64
2022/06/12 12:51:48;;;;;;;7.50;3.30;;;;;;;;;;5045302;28;20210;-64
2022/06/12 12:54:20;;;;;;;7.50;2.83;;;;;;;;;;5044858;28;20198;-64
2022/06/12 12:56:55;;;;;;;9.23;3.43;;;;;;;;;;5033319;28;20510;-64
2022/06/12 12:59:35;;;;;;;9.53;3.30;;;;;;;;;;5042461;28;20304;-64
2022/06/12 13:02:22;;;;;;;7.27;3.23;;;;;;;;;;5030382;28;20291;-64
2022/06/12 13:04:53;;;;;;;8.23;3.50;;;;;;;;;;5019659;28;20217;-64
2022/06/12 13:07:53;;;;;;;7.27;2.87;;;;;;;;;;5031753;28;20197;-66
2022/06/12 13:10:31;;;;;;;10.43;3.07;;;;;;;;;;5013960;28;20340;-67
2022/06/12 13:13:23;;;;;;;10.30;2.97;;;;;;;;;;5047293;28;20671;-67
2022/06/12 13:15:54;;;;;;;13.87;3.10;;;;;;;;;;5039875;28;20190;-64
2022/06/12 13:18:28;;;;;;;8.23;2.80;;;;;;;;;;5044979;28;20186;-64
2022/06/12 13:20:55;;;;;;;6.90;2.33;;;;;;;;;;5046510;28;20534;-64
2022/06/12 13:23:43;;;;;;;7.73;2.70;;;;;;;;;;5045124;28;20575;-65
2022/06/12 13:26:13;;;;;;;7.27;2.63;;;;;;;;;;5036377;28;20212;-64
2022/06/12 13:28:53;;;;;;;6.70;2.73;;;;;;;;;;5021429;28;20198;-64
2022/06/12 13:31:22;;;;;;;8.33;2.83;;;;;;;;;;5044999;28;20619;-64
2022/06/12 13:34:07;;;;;;;8.03;2.93;;;;;;;;;;5029584;28;20185;-64
2022/06/12 13:36:41;;;;;;;3.97;2.13;;;;;;;;;;5044123;28;20252;-64
2022/06/12 13:39:27;;;;;;;5.83;2.60;;;;;;;;;;5047396;28;20642;-63
2022/06/12 13:42:00;;;;;;;6.27;2.87;;;;;;;;;;5045179;28;20206;-64
2022/06/12 13:44:32;;;;;;;9.50;2.90;;;;;;;;;;5047816;28;20202;-64
2022/06/12 13:47:01;;;;;;;9.63;3.17;;;;;;;;;;5040743;28;20214;-66
2022/06/12 13:49:31;;;;;;;6.27;2.80;;;;;;;;;;5039162;28;20202;-67
2022/06/12 13:52:12;;;;;;;8.93;3.13;;;;;;;;;;5045075;28;20199;-64
2022/06/12 13:54:43;;;;;;;6.70;2.87;;;;;;;;;;5038551;28;20658;-64
2022/06/12 13:57:15;;;;;;;6.90;2.73;;;;;;;;;;5042564;28;20202;-64
2022/06/12 13:59:45;;;;;;;8.43;3.00;;;;;;;;;;5040272;28;20203;-64
2022/06/12 14:02:21;;;;;;;8.23;3.00;;;;;;;;;;5043167;28;20202;-64
2022/06/12 14:05:01;;;;;;;9.70;3.10;;;;;;;;;;5042147;28;20202;-64
2022/06/12 14:07:32;;;;;;;10.03;2.63;;;;;;;;;;5046730;28;20201;-67
2022/06/12 14:10:05;;;;;;;8.13;3.13;;;;;;;;;;5027076;28;20197;-66
2022/06/12 14:12:35;;;;;;;7.00;2.83;;;;;;;;;;5044836;28;20194;-64
2022/06/12 14:15:26;;;;;;;6.63;2.90;;;;;;;;;;5030468;28;20194;-66
2022/06/12 14:17:59;;;;;;;10.87;3.07;;;;;;;;;;5020255;28;20218;-67
2022/06/12 14:20:49;;;;;;;7.43;2.90;;;;;;;;;;5038183;28;20202;-67
2022/06/12 14:23:24;;;;;;;6.27;2.67;;;;;;;;;;5048905;28;20566;-67
2022/06/12 14:25:53;;;;;;;7.77;2.73;;;;;;;;;;5045075;28;20234;-67
2022/06/12 14:28:20;;;;;;;5.93;2.80;;;;;;;;;;5047113;28;20210;-67
2022/06/12 14:30:57;;;;;;;6.37;2.43;;;;;;;;;;5044430;28;20527;-67
2022/06/12 14:33:30;;;;;;;6.50;2.40;;;;;;;;;;5037829;28;20197;-67
2022/06/12 14:35:58;;;;;;;8.57;3.23;;;;;;;;;;5038440;28;20245;-66
2022/06/12 14:38:27;;;;;;;8.90;2.80;;;;;;;;;;5046166;28;20202;-66
2022/06/12 14:40:54;;;;;;;14.77;2.83;;;;;;;;;;5044857;28;20542;-66
2022/06/12 14:43:27;;;;;;;5.90;2.30;;;;;;;;;;5045265;28;20194;-66
2022/06/12 14:46:11;;;;;;;9.93;2.63;;;;;;;;;;5040804;28;20289;-63
2022/06/12 14:48:38;;;;;;;5.20;2.23;;;;;;;;;;5030656;28;20209;-63
2022/06/12 14:51:06;;;;;;;5.57;2.40;;;;;;;;;;5046689;28;20209;-65
2022/06/12 14:53:33;;;;;;;7.43;2.23;;;;;;;;;;5043703;28;20224;-66
2022/06/12 14:56:05;;;;;;;5.63;2.40;;;;;;;;;;5044156;28;20217;-66
2022/06/12 14:58:36;;;;;;;5.47;2.43;;;;;;;;;;5043290;28;20213;-66
2022/06/12 15:01:05;;;;;;;6.93;2.37;;;;;;;;;;5044780;28;20198;-66
2022/06/12 15:03:33;;;;;;;7.93;2.27;;;;;;;;;;5044204;28;20193;-66
2022/06/12 15:06:01;;;;;;;5.37;2.40;;;;;;;;;;5048792;28;20565;-66
2022/06/12 15:08:28;;;;;;;7.07;2.33;;;;;;;;;;5018162;28;20190;-66
2022/06/12 15:10:57;;;;;;;6.23;2.23;;;;;;;;;;5044008;28;20206;-64
2022/06/12 15:13:25;;;;;;;3.87;1.93;;;;;;;;;;5043095;28;20631;-64
2022/06/12 15:15:52;;;;;;;4.20;2.03;;;;;;;;;;5022208;28;20206;-64
2022/06/12 15:18:22;;;;;;;4.10;2.20;;;;;;;;;;5045413;28;20201;-64
2022/06/12 15:20:52;;;;;;;3.67;1.67;;;;;;;;;;5046609;28;20198;-63
2022/06/12 15:23:23;;;;;;;7.07;2.23;;;;;;;;;;5040321;28;20202;-63
2022/06/12 15:31:35;;;;;;;3.73;1.73;;;;;;;;;;5045001;28;20197;-64
2022/06/12 15:34:28;;;;;;;4.53;2.00;;;;;;;;;;5024964;28;20214;-64
2022/06/12 15:36:55;;;;;;;5.87;1.80;;;;;;;;;;5046967;28;20206;-63
2022/06/12 15:39:24;;;;;;;6.80;1.90;;;;;;;;;;5042818;28;20206;-64